sensor_id;sensor_type;location;lat;lon;timestamp;pressure;altitude;pressure_sealevel;temperature;humidity
73016;BME280;61893;50.074;14.440;2023-02-28T00:01:35;99626.44;;;-1.08;73.12
73016;BME280;61893;50.074;14.440;2023-02-28T00:04:01;99628.66;;;-1.23;73.54
73016;BME280;61893;50.074;14.440;2023-02-28T00:06:27;99625.19;;;-1.23;73.11
73016;BME280;61893;50.074;14.440;2023-02-28T00:08:53;99626.53;;;-1.38;73.61
73016;BME280;61893;50.074;14.440;2023-02-28T00:11:36;99624.00;;;-1.15;72.62
73016;BME280;61893;50.074;14.440;2023-02-28T00:14:14;99624.41;;;-1.25;72.95
73016;BME280;61893;50.074;14.440;2023-02-28T00:17:05;99614.25;;;-1.09;72.72
73016;BME280;61893;50.074;14.440;2023-02-28T00:19:34;99615.91;;;-1.07;72.80
73016;BME280;61893;50.074;14.440;2023-02-28T00:22:20;99629.53;;;-0.97;72.63
73016;BME280;61893;50.074;14.440;2023-02-28T00:24:46;99624.94;;;-0.91;72.15
73016;BME280;61893;50.074;14.440;2023-02-28T00:27:13;99623.28;;;-0.93;72.11
73016;BME280;61893;50.074;14.440;2023-02-28T00:29:42;99629.53;;;-0.97;72.75
73016;BME280;61893;50.074;14.440;2023-02-28T00:32:11;99623.03;;;-0.85;72.08
73016;BME280;61893;50.074;14.440;2023-02-28T00:34:46;99618.38;;;-1.02;72.33
73016;BME280;61893;50.074;14.440;2023-02-28T00:37:44;99618.91;;;-0.93;72.16
73016;BME280;61893;50.074;14.440;2023-02-28T00:40:11;99627.56;;;-0.91;71.61
73016;BME280;61893;50.074;14.440;2023-02-28T00:42:42;99629.56;;;-0.99;72.69
73016;BME280;61893;50.074;14.440;2023-02-28T00:45:16;99629.47;;;-0.96;72.00
73016;BME280;61893;50.074;14.440;2023-02-28T00:47:42;99623.63;;;-1.02;71.96
73016;BME280;61893;50.074;14.440;2023-02-28T00:50:11;99625.78;;;-0.90;71.85
73016;BME280;61893;50.074;14.440;2023-02-28T00:52:55;99626.81;;;-0.94;72.02
73016;BME280;61893;50.074;14.440;2023-02-28T00:55:38;99626.38;;;-1.07;72.16
73016;BME280;61893;50.074;14.440;2023-02-28T00:58:05;99629.72;;;-1.03;72.47
73016;BME280;61893;50.074;14.440;2023-02-28T01:00:46;99621.84;;;-1.02;72.17
73016;BME280;61893;50.074;14.440;2023-02-28T01:03:42;99621.59;;;-0.94;72.45
73016;BME280;61893;50.074;14.440;2023-02-28T01:06:22;99619.97;;;-0.98;72.09
73016;BME280;61893;50.074;14.440;2023-02-28T01:08:49;99627.69;;;-0.95;72.05
73016;BME280;61893;50.074;14.440;2023-02-28T01:11:16;99617.56;;;-1.04;72.53
73016;BME280;61893;50.074;14.440;2023-02-28T01:13:44;99621.69;;;-0.97;72.40
73016;BME280;61893;50.074;14.440;2023-02-28T01:16:11;99612.31;;;-1.03;72.51
73016;BME280;61893;50.074;14.440;2023-02-28T01:18:39;99614.41;;;-0.89;71.85
73016;BME280;61893;50.074;14.440;2023-02-28T01:21:13;99615.31;;;-0.88;71.62
73016;BME280;61893;50.074;14.440;2023-02-28T01:23:40;99615.59;;;-0.98;72.27
73016;BME280;61893;50.074;14.440;2023-02-28T01:26:07;99609.38;;;-0.94;71.81
73016;BME280;61893;50.074;14.440;2023-02-28T01:28:34;99618.88;;;-0.91;72.59
73016;BME280;61893;50.074;14.440;2023-02-28T01:31:00;99612.63;;;-0.87;71.78
73016;BME280;61893;50.074;14.440;2023-02-28T01:33:29;99614.16;;;-0.81;71.34
73016;BME280;61893;50.074;14.440;2023-02-28T01:36:10;99610.38;;;-0.98;72.14
73016;BME280;61893;50.074;14.440;2023-02-28T01:38:57;99611.19;;;-0.96;72.60
73016;BME280;61893;50.074;14.440;2023-02-28T01:41:32;99612.88;;;-0.95;71.44
73016;BME280;61893;50.074;14.440;2023-02-28T01:47:32;99615.34;;;-0.90;71.89
73016;BME280;61893;50.074;14.440;2023-02-28T01:50:20;99612.56;;;-0.85;71.15
73016;BME280;61893;50.074;14.440;2023-02-28T01:53:16;99606.06;;;-0.99;72.04
73016;BME280;61893;50.074;14.440;2023-02-28T01:56:12;99603.78;;;-1.08;72.04
73016;BME280;61893;50.074;14.440;2023-02-28T01:59:21;99599.53;;;-1.12;71.67
73016;BME280;61893;50.074;14.440;2023-02-28T02:01:57;99600.31;;;-1.08;72.15
73016;BME280;61893;50.074;14.440;2023-02-28T02:04:27;99602.06;;;-1.09;71.68
73016;BME280;61893;50.074;14.440;2023-02-28T02:07:26;99593.22;;;-1.05;71.79
73016;BME280;61893;50.074;14.440;2023-02-28T02:15:31;99596.41;;;-1.22;72.19
73016;BME280;61893;50.074;14.440;2023-02-28T02:18:06;99598.91;;;-1.19;71.63
73016;BME280;61893;50.074;14.440;2023-02-28T02:20:49;99590.75;;;-1.09;70.35
73016;BME280;61893;50.074;14.440;2023-02-28T02:36:07;99589.56;;;-1.51;70.94
73016;BME280;61893;50.074;14.440;2023-02-28T02:38:50;99596.78;;;-1.59;71.55
73016;BME280;61893;50.074;14.440;2023-02-28T02:46:47;99595.88;;;-1.58;71.12
73016;BME280;61893;50.074;14.440;2023-02-28T02:49:22;99599.34;;;-1.58;71.23
73016;BME280;61893;50.074;14.440;2023-02-28T02:51:51;99596.66;;;-1.54;70.65
73016;BME280;61893;50.074;14.440;2023-02-28T02:54:37;99590.13;;;-1.68;71.38
73016;BME280;61893;50.074;14.440;2023-02-28T02:57:09;99588.22;;;-1.63;70.97
73016;BME280;61893;50.074;14.440;2023-02-28T02:59:38;99594.50;;;-1.68;71.52
73016;BME280;61893;50.074;14.440;2023-02-28T03:02:08;99598.25;;;-1.77;71.34
73016;BME280;61893;50.074;14.440;2023-02-28T03:04:50;99601.06;;;-1.83;71.82
73016;BME280;61893;50.074;14.440;2023-02-28T03:07:17;99603.47;;;-1.77;71.37
73016;BME280;61893;50.074;14.440;2023-02-28T03:09:51;99600.03;;;-1.79;71.56
73016;BME280;61893;50.074;14.440;2023-02-28T03:12:18;99601.19;;;-1.88;71.70
73016;BME280;61893;50.074;14.440;2023-02-28T03:15:10;99610.47;;;-1.79;71.42
73016;BME280;61893;50.074;14.440;2023-02-28T03:18:04;99608.19;;;-1.90;71.44
73016;BME280;61893;50.074;14.440;2023-02-28T03:23:54;99606.69;;;-1.97;72.24
73016;BME280;61893;50.074;14.440;2023-02-28T03:26:26;99608.50;;;-1.99;72.06
73016;BME280;61893;50.074;14.440;2023-02-28T03:29:25;99602.53;;;-2.02;72.23
73016;BME280;61893;50.074;14.440;2023-02-28T03:31:59;99605.50;;;-2.15;72.48
73016;BME280;61893;50.074;14.440;2023-02-28T03:34:36;99603.75;;;-2.14;72.27
73016;BME280;61893;50.074;14.440;2023-02-28T03:37:10;99603.13;;;-2.22;73.02
73016;BME280;61893;50.074;14.440;2023-02-28T03:39:40;99599.78;;;-2.26;73.15
73016;BME280;61893;50.074;14.440;2023-02-28T03:42:26;99597.84;;;-2.21;72.68
73016;BME280;61893;50.074;14.440;2023-02-28T03:45:02;99604.38;;;-2.36;73.71
73016;BME280;61893;50.074;14.440;2023-02-28T03:50:17;99596.75;;;-2.42;73.49
73016;BME280;61893;50.074;14.440;2023-02-28T03:52:51;99593.69;;;-2.56;74.25
73016;BME280;61893;50.074;14.440;2023-02-28T03:55:20;99602.00;;;-2.43;74.33
73016;BME280;61893;50.074;14.440;2023-02-28T03:58:07;99600.13;;;-2.69;74.76
73016;BME280;61893;50.074;14.440;2023-02-28T04:00:48;99598.78;;;-2.52;73.92
73016;BME280;61893;50.074;14.440;2023-02-28T04:03:16;99599.03;;;-2.61;74.29
73016;BME280;61893;50.074;14.440;2023-02-28T04:06:07;99598.06;;;-2.57;74.30
73016;BME280;61893;50.074;14.440;2023-02-28T04:08:34;99607.19;;;-2.73;74.43
73016;BME280;61893;50.074;14.440;2023-02-28T04:11:34;99604.84;;;-2.82;74.84
73016;BME280;61893;50.074;14.440;2023-02-28T04:14:07;99603.06;;;-2.80;74.41
73016;BME280;61893;50.074;14.440;2023-02-28T04:16:40;99613.44;;;-2.79;74.78
73016;BME280;61893;50.074;14.440;2023-02-28T04:19:08;99606.16;;;-2.66;74.37
73016;BME280;61893;50.074;14.440;2023-02-28T04:21:45;99607.25;;;-2.75;74.40
73016;BME280;61893;50.074;14.440;2023-02-28T04:24:17;99604.22;;;-2.92;75.15
73016;BME280;61893;50.074;14.440;2023-02-28T04:26:47;99600.53;;;-2.83;74.89
73016;BME280;61893;50.074;14.440;2023-02-28T04:29:28;99606.03;;;-2.94;74.96
73016;BME280;61893;50.074;14.440;2023-02-28T04:31:57;99612.28;;;-3.00;75.61
73016;BME280;61893;50.074;14.440;2023-02-28T04:34:25;99612.94;;;-2.91;75.27
73016;BME280;61893;50.074;14.440;2023-02-28T04:37:15;99619.25;;;-3.00;75.17
73016;BME280;61893;50.074;14.440;2023-02-28T04:39:41;99604.53;;;-3.03;75.44
73016;BME280;61893;50.074;14.440;2023-02-28T04:42:25;99610.53;;;-2.99;75.60
73016;BME280;61893;50.074;14.440;2023-02-28T04:44:51;99612.19;;;-2.97;75.10
73016;BME280;61893;50.074;14.440;2023-02-28T04:47:21;99616.38;;;-2.91;75.03
73016;BME280;61893;50.074;14.440;2023-02-28T04:49:50;99610.44;;;-2.96;74.76
73016;BME280;61893;50.074;14.440;2023-02-28T04:52:16;99621.84;;;-3.00;75.26
73016;BME280;61893;50.074;14.440;2023-02-28T04:54:51;99614.03;;;-3.00;75.33
73016;BME280;61893;50.074;14.440;2023-02-28T04:57:44;99622.69;;;-3.00;74.93
73016;BME280;61893;50.074;14.440;2023-02-28T05:00:11;99623.53;;;-2.99;75.05
73016;BME280;61893;50.074;14.440;2023-02-28T05:02:40;99628.84;;;-3.04;75.08
73016;BME280;61893;50.074;14.440;2023-02-28T05:05:09;99620.38;;;-3.10;75.34
73016;BME280;61893;50.074;14.440;2023-02-28T05:07:45;99625.59;;;-3.12;75.71
73016;BME280;61893;50.074;14.440;2023-02-28T05:10:11;99633.69;;;-3.23;76.28
73016;BME280;61893;50.074;14.440;2023-02-28T05:12:41;99631.09;;;-3.23;76.00
73016;BME280;61893;50.074;14.440;2023-02-28T05:15:11;99631.78;;;-3.16;75.55
73016;BME280;61893;50.074;14.440;2023-02-28T05:17:42;99630.88;;;-3.15;75.68
73016;BME280;61893;50.074;14.440;2023-02-28T05:20:13;99635.97;;;-3.10;75.42
73016;BME280;61893;50.074;14.440;2023-02-28T05:22:40;99636.00;;;-3.12;75.61
73016;BME280;61893;50.074;14.440;2023-02-28T05:25:10;99634.38;;;-3.16;75.85
73016;BME280;61893;50.074;14.440;2023-02-28T05:27:38;99634.56;;;-3.24;75.67
73016;BME280;61893;50.074;14.440;2023-02-28T05:30:08;99642.13;;;-3.13;75.24
73016;BME280;61893;50.074;14.440;2023-02-28T05:32:40;99642.19;;;-3.16;75.55
73016;BME280;61893;50.074;14.440;2023-02-28T05:35:10;99643.09;;;-3.17;75.23
73016;BME280;61893;50.074;14.440;2023-02-28T05:37:38;99654.22;;;-3.12;74.99
73016;BME280;61893;50.074;14.440;2023-02-28T05:40:05;99650.19;;;-3.24;74.89
73016;BME280;61893;50.074;14.440;2023-02-28T05:42:33;99652.78;;;-3.22;75.33
73016;BME280;61893;50.074;14.440;2023-02-28T05:45:01;99652.88;;;-3.27;75.33
73016;BME280;61893;50.074;14.440;2023-02-28T05:47:36;99651.88;;;-3.21;75.09
73016;BME280;61893;50.074;14.440;2023-02-28T05:50:09;99657.81;;;-3.16;74.77
73016;BME280;61893;50.074;14.440;2023-02-28T05:53:13;99658.66;;;-3.15;74.78
73016;BME280;61893;50.074;14.440;2023-02-28T05:56:05;99657.81;;;-3.16;74.64
73016;BME280;61893;50.074;14.440;2023-02-28T05:58:37;99663.78;;;-3.12;74.41
73016;BME280;61893;50.074;14.440;2023-02-28T06:01:31;99667.13;;;-3.06;74.39
73016;BME280;61893;50.074;14.440;2023-02-28T06:04:02;99671.94;;;-3.26;75.29
73016;BME280;61893;50.074;14.440;2023-02-28T06:06:38;99665.69;;;-3.18;74.85
73016;BME280;61893;50.074;14.440;2023-02-28T06:09:11;99667.25;;;-3.12;74.35
73016;BME280;61893;50.074;14.440;2023-02-28T06:11:37;99674.28;;;-3.15;73.78
73016;BME280;61893;50.074;14.440;2023-02-28T06:14:06;99674.19;;;-3.11;74.49
73016;BME280;61893;50.074;14.440;2023-02-28T06:16:55;99675.84;;;-3.08;74.03
73016;BME280;61893;50.074;14.440;2023-02-28T06:19:27;99680.34;;;-3.15;74.39
73016;BME280;61893;50.074;14.440;2023-02-28T06:22:01;99686.28;;;-3.08;73.46
73016;BME280;61893;50.074;14.440;2023-02-28T06:24:26;99686.09;;;-3.02;73.82
73016;BME280;61893;50.074;14.440;2023-02-28T06:26:57;99693.91;;;-3.02;73.97
73016;BME280;61893;50.074;14.440;2023-02-28T06:29:34;99691.13;;;-2.95;73.58
73016;BME280;61893;50.074;14.440;2023-02-28T06:32:01;99698.78;;;-2.88;73.81
73016;BME280;61893;50.074;14.440;2023-02-28T06:34:31;99698.03;;;-2.93;73.56
73016;BME280;61893;50.074;14.440;2023-02-28T06:36:59;99703.84;;;-2.84;72.83
73016;BME280;61893;50.074;14.440;2023-02-28T06:39:29;99707.31;;;-2.83;73.13
73016;BME280;61893;50.074;14.440;2023-02-28T06:41:58;99707.09;;;-2.74;73.25
73016;BME280;61893;50.074;14.440;2023-02-28T06:44:26;99703.44;;;-2.06;70.85
73016;BME280;61893;50.074;14.440;2023-02-28T06:47:07;99710.34;;;-0.93;66.44
73016;BME280;61893;50.074;14.440;2023-02-28T06:49:36;99710.31;;;-0.41;64.63
73016;BME280;61893;50.074;14.440;2023-02-28T06:52:07;99711.75;;;0.15;61.90
73016;BME280;61893;50.074;14.440;2023-02-28T06:54:56;99709.66;;;0.47;60.73
73016;BME280;61893;50.074;14.440;2023-02-28T06:57:33;99720.81;;;0.52;60.46
73016;BME280;61893;50.074;14.440;2023-02-28T07:00:44;99726.22;;;0.02;61.61
73016;BME280;61893;50.074;14.440;2023-02-28T07:03:52;99718.81;;;0.80;58.59
73016;BME280;61893;50.074;14.440;2023-02-28T07:07:18;99716.56;;;1.54;55.98
73016;BME280;61893;50.074;14.440;2023-02-28T07:10:16;99723.84;;;1.48;54.97
73016;BME280;61893;50.074;14.440;2023-02-28T07:13:15;99718.44;;;1.92;54.34
73016;BME280;61893;50.074;14.440;2023-02-28T07:15:42;99713.88;;;2.71;51.78
73016;BME280;61893;50.074;14.440;2023-02-28T07:18:09;99716.69;;;3.03;51.63
73016;BME280;61893;50.074;14.440;2023-02-28T07:20:55;99724.00;;;3.83;49.79
73016;BME280;61893;50.074;14.440;2023-02-28T07:23:59;99727.16;;;3.39;48.93
73016;BME280;61893;50.074;14.440;2023-02-28T07:26:49;99716.06;;;3.67;48.26
73016;BME280;61893;50.074;14.440;2023-02-28T07:29:21;99733.69;;;3.49;48.60
73016;BME280;61893;50.074;14.440;2023-02-28T07:32:09;99724.63;;;4.37;46.42
73016;BME280;61893;50.074;14.440;2023-02-28T07:35:05;99733.91;;;4.44;46.27
73016;BME280;61893;50.074;14.440;2023-02-28T07:37:53;99736.06;;;4.04;46.29
73016;BME280;61893;50.074;14.440;2023-02-28T07:40:22;99737.22;;;3.48;47.38
73016;BME280;61893;50.074;14.440;2023-02-28T07:43:09;99733.94;;;3.78;47.13
73016;BME280;61893;50.074;14.440;2023-02-28T07:46:21;99734.50;;;3.67;46.57
73016;BME280;61893;50.074;14.440;2023-02-28T07:49:37;99745.31;;;4.12;45.80
73016;BME280;61893;50.074;14.440;2023-02-28T07:52:33;99737.41;;;4.61;44.89
73016;BME280;61893;50.074;14.440;2023-02-28T07:55:54;99735.69;;;4.60;44.74
73016;BME280;61893;50.074;14.440;2023-02-28T07:59:16;99744.94;;;4.99;43.45
73016;BME280;61893;50.074;14.440;2023-02-28T08:02:22;99744.78;;;4.38;44.68
73016;BME280;61893;50.074;14.440;2023-02-28T08:05:14;99744.34;;;4.30;45.63
73016;BME280;61893;50.074;14.440;2023-02-28T08:08:22;99739.13;;;5.08;43.63
73016;BME280;61893;50.074;14.440;2023-02-28T08:11:56;99732.19;;;4.59;43.67
73016;BME280;61893;50.074;14.440;2023-02-28T08:15:22;99742.84;;;4.89;42.49
73016;BME280;61893;50.074;14.440;2023-02-28T08:19:37;99733.63;;;4.96;43.05
73016;BME280;61893;50.074;14.440;2023-02-28T08:23:15;99737.41;;;4.61;43.28
73016;BME280;61893;50.074;14.440;2023-02-28T08:26:06;99731.41;;;4.89;43.10
73016;BME280;61893;50.074;14.440;2023-02-28T08:29:23;99733.66;;;5.71;41.51
73016;BME280;61893;50.074;14.440;2023-02-28T08:32:43;99729.88;;;4.69;42.72
73016;BME280;61893;50.074;14.440;2023-02-28T08:36:00;99728.38;;;4.65;42.72
73016;BME280;61893;50.074;14.440;2023-02-28T08:39:04;99729.38;;;4.62;43.48
73016;BME280;61893;50.074;14.440;2023-02-28T08:42:09;99726.97;;;5.35;41.85
73016;BME280;61893;50.074;14.440;2023-02-28T08:47:41;99737.78;;;5.31;41.49
73016;BME280;61893;50.074;14.440;2023-02-28T08:50:30;99740.72;;;5.40;41.03
73016;BME280;61893;50.074;14.440;2023-02-28T08:52:57;99728.88;;;4.56;41.48
73016;BME280;61893;50.074;14.440;2023-02-28T09:01:52;99739.41;;;4.24;42.66
73016;BME280;61893;50.074;14.440;2023-02-28T09:04:25;99731.44;;;4.41;42.94
73016;BME280;61893;50.074;14.440;2023-02-28T09:06:52;99732.97;;;4.45;42.19
73016;BME280;61893;50.074;14.440;2023-02-28T09:18:25;99733.53;;;4.35;41.89
73016;BME280;61893;50.074;14.440;2023-02-28T09:21:14;99728.53;;;4.46;41.22
73016;BME280;61893;50.074;14.440;2023-02-28T09:23:43;99719.59;;;4.48;41.75
73016;BME280;61893;50.074;14.440;2023-02-28T09:26:27;99721.13;;;4.84;40.29
73016;BME280;61893;50.074;14.440;2023-02-28T09:28:57;99725.63;;;4.19;41.90
73016;BME280;61893;50.074;14.440;2023-02-28T09:31:27;99718.44;;;4.70;41.64
73016;BME280;61893;50.074;14.440;2023-02-28T09:33:56;99722.16;;;5.12;40.17
73016;BME280;61893;50.074;14.440;2023-02-28T09:36:24;99726.75;;;4.62;40.60
73016;BME280;61893;50.074;14.440;2023-02-28T09:38:55;99733.19;;;4.25;41.91
73016;BME280;61893;50.074;14.440;2023-02-28T09:41:46;99718.66;;;4.81;40.75
73016;BME280;61893;50.074;14.440;2023-02-28T09:44:31;99730.22;;;4.31;41.85
73016;BME280;61893;50.074;14.440;2023-02-28T09:58:37;99733.50;;;3.70;43.41
73016;BME280;61893;50.074;14.440;2023-02-28T10:01:36;99741.69;;;3.29;43.82
73016;BME280;61893;50.074;14.440;2023-02-28T10:06:54;99746.94;;;3.11;44.72
73016;BME280;61893;50.074;14.440;2023-02-28T10:09:25;99738.72;;;3.00;45.46
73016;BME280;61893;50.074;14.440;2023-02-28T10:12:23;99736.38;;;2.77;45.83
73016;BME280;61893;50.074;14.440;2023-02-28T10:15:53;99742.41;;;2.79;46.15
73016;BME280;61893;50.074;14.440;2023-02-28T10:19:23;99735.34;;;2.62;46.00
73016;BME280;61893;50.074;14.440;2023-02-28T10:23:27;99733.06;;;2.90;45.74
73016;BME280;61893;50.074;14.440;2023-02-28T10:27:19;99731.06;;;2.40;46.23
73016;BME280;61893;50.074;14.440;2023-02-28T10:30:40;99735.22;;;2.82;46.39
73016;BME280;61893;50.074;14.440;2023-02-28T10:34:37;99732.09;;;2.74;46.52
73016;BME280;61893;50.074;14.440;2023-02-28T10:41:45;99734.03;;;2.70;46.05
73016;BME280;61893;50.074;14.440;2023-02-28T10:45:35;99726.66;;;2.79;46.68
73016;BME280;61893;50.074;14.440;2023-02-28T10:48:50;99721.75;;;2.71;46.99
73016;BME280;61893;50.074;14.440;2023-02-28T10:51:39;99716.09;;;2.61;46.22
73016;BME280;61893;50.074;14.440;2023-02-28T10:54:31;99730.22;;;2.40;47.89
73016;BME280;61893;50.074;14.440;2023-02-28T10:57:34;99721.63;;;2.17;48.09
73016;BME280;61893;50.074;14.440;2023-02-28T11:00:45;99725.75;;;2.04;48.48
73016;BME280;61893;50.074;14.440;2023-02-28T11:31:02;99700.19;;;2.45;48.74
73016;BME280;61893;50.074;14.440;2023-02-28T11:33:55;99691.34;;;2.65;47.96
73016;BME280;61893;50.074;14.440;2023-02-28T11:36:29;99698.41;;;2.65;47.72
73016;BME280;61893;50.074;14.440;2023-02-28T11:39:04;99697.94;;;2.38;48.47
73016;BME280;61893;50.074;14.440;2023-02-28T11:41:57;99694.59;;;2.34;48.62
73016;BME280;61893;50.074;14.440;2023-02-28T11:44:42;99680.91;;;2.28;48.47
73016;BME280;61893;50.074;14.440;2023-02-28T11:55:45;99680.44;;;2.56;48.54
73016;BME280;61893;50.074;14.440;2023-02-28T12:11:52;99656.28;;;2.66;47.33
73016;BME280;61893;50.074;14.440;2023-02-28T12:17:38;99674.31;;;2.91;47.14
73016;BME280;61893;50.074;14.440;2023-02-28T12:20:45;99673.59;;;2.70;47.19
73016;BME280;61893;50.074;14.440;2023-02-28T12:29:29;99660.25;;;3.10;46.11
73016;BME280;61893;50.074;14.440;2023-02-28T12:33:16;99655.00;;;3.10;46.38
73016;BME280;61893;50.074;14.440;2023-02-28T12:36:28;99655.16;;;3.24;45.82
73016;BME280;61893;50.074;14.440;2023-02-28T12:43:03;99645.53;;;3.41;46.32
73016;BME280;61893;50.074;14.440;2023-02-28T12:46:10;99656.81;;;3.43;45.91
73016;BME280;61893;50.074;14.440;2023-02-28T12:48:56;99646.34;;;3.08;47.19
73016;BME280;61893;50.074;14.440;2023-02-28T12:51:52;99653.59;;;3.20;46.48
73016;BME280;61893;50.074;14.440;2023-02-28T13:02:01;99645.78;;;3.36;45.85
73016;BME280;61893;50.074;14.440;2023-02-28T13:09:15;99639.97;;;3.29;46.17
73016;BME280;61893;50.074;14.440;2023-02-28T13:11:50;99639.06;;;3.46;45.83
73016;BME280;61893;50.074;14.440;2023-02-28T13:19:33;99627.31;;;3.53;45.49
73016;BME280;61893;50.074;14.440;2023-02-28T13:22:01;99630.91;;;3.68;45.12
73016;BME280;61893;50.074;14.440;2023-02-28T13:29:30;99625.25;;;3.43;45.88
73016;BME280;61893;50.074;14.440;2023-02-28T13:37:42;99630.22;;;3.65;45.88
73016;BME280;61893;50.074;14.440;2023-02-28T13:42:56;99627.19;;;3.39;45.73
73016;BME280;61893;50.074;14.440;2023-02-28T13:45:31;99626.06;;;3.27;46.11
73016;BME280;61893;50.074;14.440;2023-02-28T13:48:26;99626.31;;;3.56;44.61
73016;BME280;61893;50.074;14.440;2023-02-28T13:51:00;99621.47;;;3.31;45.19
73016;BME280;61893;50.074;14.440;2023-02-28T13:57:26;99617.81;;;3.51;45.24
73016;BME280;61893;50.074;14.440;2023-02-28T14:00:35;99621.53;;;3.47;45.68
73016;BME280;61893;50.074;14.440;2023-02-28T14:04:14;99616.72;;;3.37;46.32
73016;BME280;61893;50.074;14.440;2023-02-28T14:07:52;99623.75;;;3.54;44.70
73016;BME280;61893;50.074;14.440;2023-02-28T14:11:24;99616.59;;;3.41;45.74
73016;BME280;61893;50.074;14.440;2023-02-28T14:14:02;99626.22;;;3.24;46.24
73016;BME280;61893;50.074;14.440;2023-02-28T14:17:25;99619.47;;;3.36;45.91
73016;BME280;61893;50.074;14.440;2023-02-28T14:19:57;99635.28;;;3.52;46.08
73016;BME280;61893;50.074;14.440;2023-02-28T14:26:03;99613.66;;;3.47;45.81
73016;BME280;61893;50.074;14.440;2023-02-28T14:39:03;99604.66;;;3.51;46.25
73016;BME280;61893;50.074;14.440;2023-02-28T14:42:35;99594.22;;;3.32;47.05
73016;BME280;61893;50.074;14.440;2023-02-28T14:45:05;99595.28;;;3.29;46.42
73016;BME280;61893;50.074;14.440;2023-02-28T14:48:15;99594.59;;;3.08;46.84
73016;BME280;61893;50.074;14.440;2023-02-28T14:51:45;99599.31;;;2.84;47.80
73016;BME280;61893;50.074;14.440;2023-02-28T14:54:58;99590.97;;;2.93;48.16
73016;BME280;61893;50.074;14.440;2023-02-28T15:05:53;99595.22;;;2.96;47.61
73016;BME280;61893;50.074;14.440;2023-02-28T15:08:26;99595.44;;;2.74;48.57
73016;BME280;61893;50.074;14.440;2023-02-28T15:11:08;99601.78;;;2.70;48.52
73016;BME280;61893;50.074;14.440;2023-02-28T15:14:05;99594.53;;;2.92;48.03
73016;BME280;61893;50.074;14.440;2023-02-28T15:17:30;99606.63;;;2.60;48.19
73016;BME280;61893;50.074;14.440;2023-02-28T15:21:18;99605.66;;;2.80;47.76
73016;BME280;61893;50.074;14.440;2023-02-28T15:27:18;99611.94;;;2.78;47.95
73016;BME280;61893;50.074;14.440;2023-02-28T15:29:54;99595.13;;;2.63;48.88
73016;BME280;61893;50.074;14.440;2023-02-28T15:32:33;99598.63;;;2.63;48.97
73016;BME280;61893;50.074;14.440;2023-02-28T15:38:03;99599.22;;;2.68;48.71
73016;BME280;61893;50.074;14.440;2023-02-28T15:40:43;99601.69;;;2.54;49.27
73016;BME280;61893;50.074;14.440;2023-02-28T15:43:18;99595.44;;;2.57;49.65
73016;BME280;61893;50.074;14.440;2023-02-28T15:46:02;99595.38;;;2.58;49.91
73016;BME280;61893;50.074;14.440;2023-02-28T15:48:53;99591.28;;;2.53;49.81
73016;BME280;61893;50.074;14.440;2023-02-28T15:51:34;99584.75;;;2.42;50.29
73016;BME280;61893;50.074;14.440;2023-02-28T15:54:11;99593.16;;;2.32;50.31
73016;BME280;61893;50.074;14.440;2023-02-28T15:56:44;99587.00;;;2.33;50.57
73016;BME280;61893;50.074;14.440;2023-02-28T15:59:19;99587.69;;;2.36;50.75
73016;BME280;61893;50.074;14.440;2023-02-28T16:01:46;99592.97;;;2.17;50.50
73016;BME280;61893;50.074;14.440;2023-02-28T16:04:18;99593.69;;;2.21;50.69
73016;BME280;61893;50.074;14.440;2023-02-28T16:09:25;99601.72;;;2.18;50.64
73016;BME280;61893;50.074;14.440;2023-02-28T16:11:55;99602.66;;;1.98;51.17
73016;BME280;61893;50.074;14.440;2023-02-28T16:14:27;99597.63;;;2.12;51.15
73016;BME280;61893;50.074;14.440;2023-02-28T16:17:23;99601.94;;;1.94;51.76
73016;BME280;61893;50.074;14.440;2023-02-28T16:19:56;99598.47;;;1.94;51.65
73016;BME280;61893;50.074;14.440;2023-02-28T16:23:12;99606.94;;;2.00;51.59
73016;BME280;61893;50.074;14.440;2023-02-28T16:25:44;99608.25;;;1.90;51.43
73016;BME280;61893;50.074;14.440;2023-02-28T16:28:34;99606.69;;;1.67;51.91
73016;BME280;61893;50.074;14.440;2023-02-28T16:31:37;99609.75;;;1.77;52.18
73016;BME280;61893;50.074;14.440;2023-02-28T16:34:30;99610.88;;;1.71;52.13
73016;BME280;61893;50.074;14.440;2023-02-28T16:36:59;99612.50;;;1.74;51.70
73016;BME280;61893;50.074;14.440;2023-02-28T16:39:34;99618.19;;;1.65;52.70
73016;BME280;61893;50.074;14.440;2023-02-28T16:42:28;99618.97;;;1.67;52.11
73016;BME280;61893;50.074;14.440;2023-02-28T16:45:34;99623.72;;;1.58;52.40
73016;BME280;61893;50.074;14.440;2023-02-28T16:48:27;99622.63;;;1.44;52.15
73016;BME280;61893;50.074;14.440;2023-02-28T16:50:59;99626.81;;;1.48;52.78
73016;BME280;61893;50.074;14.440;2023-02-28T16:53:40;99626.09;;;1.44;53.27
73016;BME280;61893;50.074;14.440;2023-02-28T16:58:49;99631.53;;;1.40;52.90
73016;BME280;61893;50.074;14.440;2023-02-28T17:01:16;99626.28;;;1.40;53.12
73016;BME280;61893;50.074;14.440;2023-02-28T17:03:55;99631.75;;;1.35;52.60
73016;BME280;61893;50.074;14.440;2023-02-28T17:06:35;99626.31;;;1.19;53.70
73016;BME280;61893;50.074;14.440;2023-02-28T17:09:36;99630.53;;;1.23;52.95
73016;BME280;61893;50.074;14.440;2023-02-28T17:12:58;99631.84;;;1.13;54.39
73016;BME280;61893;50.074;14.440;2023-02-28T17:15:53;99627.97;;;1.22;53.87
73016;BME280;61893;50.074;14.440;2023-02-28T17:18:43;99635.75;;;1.03;54.67
73016;BME280;61893;50.074;14.440;2023-02-28T17:21:43;99639.38;;;1.00;54.57
73016;BME280;61893;50.074;14.440;2023-02-28T17:24:42;99645.13;;;1.08;54.72
73016;BME280;61893;50.074;14.440;2023-02-28T17:27:12;99644.41;;;1.05;55.22
73016;BME280;61893;50.074;14.440;2023-02-28T17:29:41;99647.69;;;1.10;53.91
73016;BME280;61893;50.074;14.440;2023-02-28T17:32:11;99650.50;;;1.05;54.70
73016;BME280;61893;50.074;14.440;2023-02-28T17:34:40;99648.13;;;0.99;54.66
73016;BME280;61893;50.074;14.440;2023-02-28T17:37:36;99649.78;;;1.02;55.17
73016;BME280;61893;50.074;14.440;2023-02-28T17:40:16;99645.47;;;1.01;55.06
73016;BME280;61893;50.074;14.440;2023-02-28T17:42:58;99649.66;;;1.05;54.86
73016;BME280;61893;50.074;14.440;2023-02-28T17:45:50;99649.13;;;0.97;55.11